Главная страница
METAR-TAF:

METAR-TAF

Аэропорты :

Мак-Карран

Лас-Вегас, Невада, США

широта: 36-04-44N, долгота: 115-09-19W, высота над уровнем моря: 663 м

Текущие метеонаблюдения

Эта сводка был подготовлена 43 минут назад, в 19:56 UTC
Ветер 3 Узел переменных направлений
Температура 37°C
Влажность 15%
Давление 1011 hPa
Видимость: 16.1 км
ясное небо

METAR: KLAS 241956Z VRB03KT 10SM CLR 37/06 A2986 RMK AO2 SLP079 T03720067

Время: 13:39 (20:39 UTC)

Прогноз

Эта сводка был подготовлена 3 часа и 19 минут назад, в 17:20 UTC
Прогноз действительный с 24-го 18 UTC до 25-го 24 UTC
Ветер 11 Узел от восточно-северо-восточный
Видимость: 10 км
ясное небо
С 25-го 0100 UTC
Ветер 10 Узел от южный-юго-западный
Видимость: 10 км
ясное небо
С 25-го 1500 UTC
Ветер 7 Узел от восточно-северо-восточный
Видимость: 10 км
ясное небо

TAF: KLAS 241720Z 2418/2524 06011KT P6SM SKC FM250100 20010KT P6SM SKC FM251500 07007KT P6SM SKC

Метеонаблюдения и прогнозы для более 4000 аэропортов (сводки METAR и TAF).

Имеющиеся станции представлены на карте желтыми и красными точками.

Чтобы увидеть название станции, наведите на нее мышь.

Затем щелкните, чтобы увидеть метеонаблюдения и метеопрогнозы.

Управление картой: чтобы увеличить масштаб, щелкните зеленые кнопки с черным крестиком; чтобы уменьшить масштаб, щелкните зеленую кнопку с тире; для просмотра соседних карт щелкайте зеленые стрелки.


METAR-TAF: